Time;durP1;ratioP1;P1;durP2;ratioP2;P2;SDS_P1;SDS_P2;PMS_P1;PMS_P2;Temp;Humidity;BMP_temperature;BMP_pressure;BME280_temperature;BME280_humidity;BME280_pressure;Samples;Min_cycle;Max_cycle;Signal;HPM_P1;HPM_P2
2022/04/01 00:00:15;;;;;;;3.42;2.83;;;;;;;;;;10429520;28;20285;-73
2022/04/01 00:05:18;;;;;;;5.85;3.40;;;;;;;;;;10427037;28;20266;-73
2022/04/01 00:10:19;;;;;;;3.17;2.97;;;;;;;;;;10428699;28;20282;-73
2022/04/01 00:15:20;;;;;;;3.60;3.03;;;;;;;;;;10427243;28;21191;-73
2022/04/01 00:20:21;;;;;;;5.68;3.50;;;;;;;;;;10429695;28;20241;-72
2022/04/01 00:25:22;;;;;;;4.20;3.87;;;;;;;;;;10427831;28;20293;-73
2022/04/01 00:30:23;;;;;;;5.30;3.43;;;;;;;;;;10427984;28;20217;-73
2022/04/01 00:35:25;;;;;;;3.20;3.00;;;;;;;;;;10427909;28;20214;-73
2022/04/01 00:40:26;;;;;;;3.00;2.53;;;;;;;;;;10426846;28;20203;-74
2022/04/01 00:45:27;;;;;;;3.90;3.60;;;;;;;;;;10441307;28;20195;-72
2022/04/01 00:50:31;;;;;;;4.97;4.10;;;;;;;;;;10428323;28;20219;-73
2022/04/01 00:55:33;;;;;;;6.33;3.90;;;;;;;;;;10423175;28;20725;-72
2022/04/01 01:00:36;;;;;;;4.87;4.20;;;;;;;;;;10423924;28;20215;-72
2022/04/01 01:05:37;;;;;;;4.73;4.23;;;;;;;;;;10426124;28;20191;-73
2022/04/01 01:10:38;;;;;;;6.88;4.32;;;;;;;;;;10423570;28;20203;-72
2022/04/01 01:15:39;;;;;;;5.93;4.00;;;;;;;;;;10421554;28;20195;-70
2022/04/01 01:20:41;;;;;;;4.23;3.83;;;;;;;;;;10422496;28;20195;-70
2022/04/01 01:25:42;;;;;;;6.70;4.23;;;;;;;;;;10424328;28;20293;-70
2022/04/01 01:30:43;;;;;;;7.82;3.67;;;;;;;;;;10413156;28;20215;-70
2022/04/01 01:35:44;;;;;;;3.80;3.43;;;;;;;;;;10418901;28;20289;-70
2022/04/01 01:40:45;;;;;;;3.20;2.93;;;;;;;;;;10424707;28;20202;-70
2022/04/01 01:45:46;;;;;;;3.80;3.20;;;;;;;;;;10425259;28;20207;-70
2022/04/01 01:56:07;;;;;;;3.63;3.33;;;;;;;;;;10422071;28;20230;-69
2022/04/01 02:01:11;;;;;;;5.97;3.67;;;;;;;;;;10433850;28;20208;-70
2022/04/01 02:06:13;;;;;;;4.28;3.80;;;;;;;;;;10417388;28;20226;-69
2022/04/01 02:11:14;;;;;;;3.90;3.58;;;;;;;;;;10401425;28;20203;-70
2022/04/01 02:16:15;;;;;;;5.78;3.85;;;;;;;;;;10418035;28;20224;-69
2022/04/01 02:21:17;;;;;;;8.73;4.40;;;;;;;;;;10423602;28;20638;-70
2022/04/01 02:26:19;;;;;;;7.63;3.95;;;;;;;;;;10435039;28;20218;-70
2022/04/01 02:31:20;;;;;;;5.30;3.70;;;;;;;;;;10420238;28;20698;-70
2022/04/01 02:36:40;;;;;;;4.45;3.80;;;;;;;;;;10422418;28;20211;-69
2022/04/01 02:41:41;;;;;;;6.53;3.20;;;;;;;;;;10427185;28;20914;-70
2022/04/01 02:46:43;;;;;;;3.38;3.17;;;;;;;;;;10441921;28;20643;-70
2022/04/01 02:51:47;;;;;;;4.78;3.50;;;;;;;;;;10426935;28;20203;-69
2022/04/01 02:56:52;;;;;;;3.92;3.38;;;;;;;;;;10444019;28;20218;-69
2022/04/01 03:01:53;;;;;;;5.10;2.83;;;;;;;;;;10413417;28;20218;-72
2022/04/01 03:06:54;;;;;;;4.17;3.73;;;;;;;;;;10432782;28;20203;-69
2022/04/01 03:11:56;;;;;;;2.80;2.63;;;;;;;;;;10438918;28;20215;-69
2022/04/01 03:17:17;;;;;;;5.60;3.77;;;;;;;;;;10423248;28;20202;-68
2022/04/01 03:22:20;;;;;;;4.27;3.47;;;;;;;;;;10410300;28;20268;-69
2022/04/01 03:27:21;;;;;;;5.07;3.60;;;;;;;;;;10437858;28;20335;-69
2022/04/01 03:32:22;;;;;;;4.37;3.43;;;;;;;;;;10425910;28;20216;-69
2022/04/01 03:37:23;;;;;;;3.67;3.37;;;;;;;;;;10426641;28;20199;-70
2022/04/01 03:42:30;;;;;;;3.40;3.10;;;;;;;;;;10420971;28;20206;-70
2022/04/01 03:47:51;;;;;;;4.20;3.73;;;;;;;;;;10420689;28;20268;-69
2022/04/01 03:52:57;;;;;;;5.00;3.67;;;;;;;;;;10423326;28;20294;-70
2022/04/01 03:58:02;;;;;;;4.60;4.00;;;;;;;;;;10440693;28;20203;-69
2022/04/01 04:03:39;;;;;;;10.30;4.13;;;;;;;;;;10426290;28;20220;-70
2022/04/01 04:08:44;;;;;;;5.27;3.73;;;;;;;;;;10410496;28;20213;-69
2022/04/01 04:13:46;;;;;;;4.97;3.57;;;;;;;;;;10418516;28;20246;-70
2022/04/01 04:19:00;;;;;;;3.93;3.53;;;;;;;;;;10418060;28;20190;-69
2022/04/01 04:24:06;;;;;;;3.80;3.50;;;;;;;;;;10438319;28;20572;-69
2022/04/01 04:29:13;;;;;;;3.67;3.45;;;;;;;;;;10436442;28;20207;-69
2022/04/01 04:34:22;;;;;;;4.37;3.87;;;;;;;;;;10430113;28;20222;-69
2022/04/01 04:39:27;;;;;;;4.13;3.60;;;;;;;;;;10417617;28;20569;-69
2022/04/01 04:44:30;;;;;;;7.37;3.90;;;;;;;;;;10418864;28;20234;-72
2022/04/01 04:49:32;;;;;;;3.87;3.50;;;;;;;;;;10435687;28;20702;-68
2022/04/01 04:54:34;;;;;;;6.53;4.10;;;;;;;;;;10419709;28;20223;-70
2022/04/01 04:59:51;;;;;;;5.77;3.60;;;;;;;;;;10435713;28;20199;-70
2022/04/01 05:05:02;;;;;;;4.73;4.27;;;;;;;;;;10429968;28;20288;-71
2022/04/01 05:10:18;;;;;;;5.40;4.40;;;;;;;;;;10433374;28;20219;-69
2022/04/01 05:15:24;;;;;;;6.93;4.23;;;;;;;;;;10419504;28;20203;-70
2022/04/01 05:20:29;;;;;;;4.47;4.10;;;;;;;;;;10416445;28;20206;-70
2022/04/01 05:25:34;;;;;;;4.07;3.67;;;;;;;;;;10433827;28;20208;-70
2022/04/01 05:30:40;;;;;;;4.97;4.27;;;;;;;;;;10407447;28;20211;-71
2022/04/01 05:35:51;;;;;;;7.17;4.10;;;;;;;;;;10431466;28;20200;-70
2022/04/01 05:40:55;;;;;;;5.73;4.30;;;;;;;;;;10435464;28;20187;-70
2022/04/01 05:45:57;;;;;;;4.83;3.53;;;;;;;;;;10419296;28;20560;-70
2022/04/01 05:50:58;;;;;;;4.43;3.33;;;;;;;;;;10418822;28;20194;-70
2022/04/01 05:56:05;;;;;;;7.55;2.88;;;;;;;;;;10421958;28;20223;-70
2022/04/01 06:01:07;;;;;;;3.73;3.23;;;;;;;;;;10402339;28;20242;-70
2022/04/01 06:06:21;;;;;;;3.50;3.30;;;;;;;;;;10421571;28;20212;-71
2022/04/01 06:11:41;;;;;;;2.77;2.67;;;;;;;;;;10420971;28;20207;-70
2022/04/01 06:17:04;;;;;;;4.30;3.07;;;;;;;;;;10424524;28;20203;-69
2022/04/01 06:22:09;;;;;;;4.37;3.03;;;;;;;;;;10421685;28;20323;-70
2022/04/01 06:27:39;;;;;;;2.93;2.60;;;;;;;;;;10437796;28;20215;-70
2022/04/01 06:33:01;;;;;;;2.97;2.73;;;;;;;;;;10419172;28;20218;-70
2022/04/01 06:38:43;;;;;;;2.70;2.50;;;;;;;;;;10440820;28;20218;-70
2022/04/01 06:43:45;;;;;;;3.10;2.80;;;;;;;;;;10421954;28;20249;-70
2022/04/01 06:49:08;;;;;;;5.90;2.93;;;;;;;;;;10420958;28;20298;-70
2022/04/01 06:54:28;;;;;;;7.03;3.60;;;;;;;;;;10419822;28;20215;-69
2022/04/01 06:59:48;;;;;;;3.03;2.83;;;;;;;;;;10426267;28;20238;-69
2022/04/01 07:04:49;;;;;;;10.50;2.83;;;;;;;;;;10419687;28;20207;-70
2022/04/01 07:09:50;;;;;;;3.93;2.80;;;;;;;;;;10421910;28;20586;-70
2022/04/01 07:14:51;;;;;;;4.45;2.88;;;;;;;;;;10419170;28;20203;-70
2022/04/01 07:19:52;;;;;;;2.60;2.05;;;;;;;;;;10420734;28;20199;-70
2022/04/01 07:24:53;;;;;;;2.57;2.33;;;;;;;;;;10427569;28;20289;-69
2022/04/01 07:29:54;;;;;;;4.60;2.13;;;;;;;;;;10443632;28;20211;-70
2022/04/01 07:34:56;;;;;;;1.85;1.75;;;;;;;;;;10428585;28;20630;-70
2022/04/01 07:39:58;;;;;;;2.08;1.70;;;;;;;;;;10426047;28;20679;-70
2022/04/01 07:45:00;;;;;;;2.47;2.25;;;;;;;;;;10440851;28;20202;-70
2022/04/01 07:50:03;;;;;;;2.75;2.20;;;;;;;;;;10427223;28;20233;-70
2022/04/01 07:55:04;;;;;;;1.98;1.88;;;;;;;;;;10426500;28;20718;-70
2022/04/01 08:00:06;;;;;;;2.70;1.98;;;;;;;;;;10428900;28;20723;-70
2022/04/01 08:05:14;;;;;;;2.33;1.75;;;;;;;;;;10430940;28;20223;-70
2022/04/01 08:10:15;;;;;;;2.30;1.95;;;;;;;;;;10429310;28;20696;-70
2022/04/01 08:15:18;;;;;;;4.82;1.75;;;;;;;;;;10427242;28;20286;-69
2022/04/01 08:20:19;;;;;;;4.38;2.10;;;;;;;;;;10424383;28;20286;-70
2022/04/01 08:25:20;;;;;;;2.15;2.05;;;;;;;;;;10428437;28;20214;-70
2022/04/01 08:30:22;;;;;;;2.25;2.08;;;;;;;;;;10428091;28;20601;-69
2022/04/01 08:35:23;;;;;;;1.77;1.70;;;;;;;;;;10425646;28;20545;-69
2022/04/01 08:40:24;;;;;;;2.22;2.00;;;;;;;;;;10424455;28;20682;-69
2022/04/01 08:45:25;;;;;;;3.13;1.80;;;;;;;;;;10424746;28;20282;-70
2022/04/01 08:50:27;;;;;;;1.90;1.90;;;;;;;;;;10423891;28;20622;-73
2022/04/01 08:55:28;;;;;;;1.60;1.58;;;;;;;;;;10420276;28;21040;-74
2022/04/01 09:00:29;;;;;;;1.90;1.80;;;;;;;;;;10426694;28;20744;-74
2022/04/01 09:05:30;;;;;;;3.85;2.03;;;;;;;;;;10426142;28;20222;-75
2022/04/01 09:10:32;;;;;;;1.77;1.70;;;;;;;;;;10429526;28;20202;-77
2022/04/01 09:15:43;;;;;;;1.77;1.67;;;;;;;;;;10426523;28;20234;-75
2022/04/01 09:20:46;;;;;;;2.78;1.58;;;;;;;;;;10422764;28;20745;-74
2022/04/01 09:25:48;;;;;;;1.85;1.75;;;;;;;;;;10426719;28;20272;-75
2022/04/01 09:30:56;;;;;;;2.13;1.75;;;;;;;;;;10425279;28;20234;-75
2022/04/01 09:36:02;;;;;;;4.00;1.45;;;;;;;;;;10426611;28;20199;-75
2022/04/01 09:41:03;;;;;;;2.25;1.42;;;;;;;;;;10422032;28;20200;-74
2022/04/01 09:46:24;;;;;;;1.58;1.30;;;;;;;;;;10427606;28;20695;-75
2022/04/01 09:51:29;;;;;;;3.28;2.33;;;;;;;;;;10423440;28;20199;-75
2022/04/01 09:56:38;;;;;;;3.65;1.20;;;;;;;;;;10420344;28;20229;-73
2022/04/01 10:01:40;;;;;;;1.80;1.35;;;;;;;;;;10423276;28;20662;-73
2022/04/01 10:06:42;;;;;;;0.98;0.98;;;;;;;;;;10427582;28;20215;-73
2022/04/01 10:11:43;;;;;;;3.33;1.17;;;;;;;;;;10421208;28;21886;-73
2022/04/01 10:16:45;;;;;;;2.58;1.00;;;;;;;;;;10422027;28;20226;-73
2022/04/01 10:21:46;;;;;;;2.97;1.20;;;;;;;;;;10426071;28;20210;-73
2022/04/01 10:27:06;;;;;;;1.20;1.10;;;;;;;;;;10424218;28;20300;-72
2022/04/01 10:32:26;;;;;;;1.75;1.13;;;;;;;;;;10438198;28;20206;-73
2022/04/01 10:37:29;;;;;;;4.68;1.08;;;;;;;;;;10422913;28;20662;-72
2022/04/01 10:42:32;;;;;;;3.30;1.00;;;;;;;;;;10422720;28;20230;-73
2022/04/01 10:53:30;;;;;;;1.50;0.90;;;;;;;;;;10421925;28;20221;-72
2022/04/01 10:58:36;;;;;;;5.07;0.90;;;;;;;;;;10426514;28;20211;-73
2022/04/01 11:03:37;;;;;;;3.40;1.92;;;;;;;;;;10429737;28;20692;-73
2022/04/01 11:08:53;;;;;;;3.85;1.15;;;;;;;;;;10430316;28;20210;-72
2022/04/01 11:14:02;;;;;;;1.20;1.05;;;;;;;;;;10429911;28;20206;-74
2022/04/01 11:19:10;;;;;;;1.45;0.85;;;;;;;;;;10431414;28;20202;-72
2022/04/01 11:24:24;;;;;;;2.65;0.98;;;;;;;;;;10431411;28;20291;-73
2022/04/01 11:29:28;;;;;;;2.92;1.00;;;;;;;;;;10430076;28;20312;-77
2022/04/01 11:34:30;;;;;;;3.42;1.10;;;;;;;;;;10412477;28;20218;-75
2022/04/01 11:39:31;;;;;;;2.40;2.20;;;;;;;;;;10409896;28;20368;-73
2022/04/01 11:44:32;;;;;;;3.60;1.15;;;;;;;;;;10426527;28;20207;-73
2022/04/01 11:49:34;;;;;;;1.58;1.10;;;;;;;;;;10433826;28;20214;-75
2022/04/01 11:54:35;;;;;;;4.45;1.50;;;;;;;;;;10428886;28;20230;-73
2022/04/01 11:59:36;;;;;;;8.60;1.67;;;;;;;;;;10430216;28;20239;-74
2022/04/01 12:04:38;;;;;;;3.47;1.38;;;;;;;;;;10431990;28;20340;-74
2022/04/01 12:09:39;;;;;;;2.25;1.30;;;;;;;;;;10443287;28;20311;-77
2022/04/01 12:14:41;;;;;;;5.25;1.42;;;;;;;;;;10427585;28;20203;-73
2022/04/01 12:19:42;;;;;;;1.70;1.60;;;;;;;;;;10430718;28;20203;-73
2022/04/01 12:24:43;;;;;;;5.47;1.30;;;;;;;;;;10413493;28;20211;-74
2022/04/01 12:29:45;;;;;;;4.18;1.25;;;;;;;;;;10444838;28;20240;-73
2022/04/01 12:34:46;;;;;;;6.05;1.20;;;;;;;;;;10414549;28;20207;-74
2022/04/01 12:39:57;;;;;;;2.60;1.45;;;;;;;;;;10416060;28;20199;-74
2022/04/01 12:44:58;;;;;;;8.45;1.10;;;;;;;;;;10421656;28;20208;-74
2022/04/01 12:49:59;;;;;;;2.33;1.30;;;;;;;;;;10423635;28;20264;-74
2022/04/01 12:55:01;;;;;;;1.35;1.13;;;;;;;;;;10436314;28;20219;-72
2022/04/01 13:00:13;;;;;;;6.43;1.50;;;;;;;;;;10423904;28;20213;-71
2022/04/01 13:05:14;;;;;;;4.68;1.23;;;;;;;;;;10424093;28;20285;-72
2022/04/01 13:10:16;;;;;;;6.00;1.20;;;;;;;;;;10416624;28;20242;-72
2022/04/01 13:15:19;;;;;;;1.40;1.33;;;;;;;;;;10419948;28;20214;-72
2022/04/01 13:20:21;;;;;;;4.07;0.93;;;;;;;;;;10422655;28;20222;-73
2022/04/01 13:25:27;;;;;;;3.85;1.08;;;;;;;;;;10420407;28;20203;-74
2022/04/01 13:30:28;;;;;;;2.97;1.10;;;;;;;;;;10426100;28;20318;-74
2022/04/01 13:35:30;;;;;;;5.07;1.00;;;;;;;;;;10422219;28;20221;-75
2022/04/01 13:40:32;;;;;;;4.43;1.00;;;;;;;;;;10421714;28;20227;-74
2022/04/01 13:45:33;;;;;;;3.50;0.80;;;;;;;;;;10417736;28;20196;-74
2022/04/01 13:50:35;;;;;;;4.25;0.75;;;;;;;;;;10417711;28;20218;-74
2022/04/01 13:55:37;;;;;;;5.55;1.27;;;;;;;;;;10418734;28;20231;-73
2022/04/01 14:00:39;;;;;;;2.17;1.02;;;;;;;;;;10409400;28;20221;-74
2022/04/01 14:05:41;;;;;;;8.07;1.20;;;;;;;;;;10422199;28;20219;-74
2022/04/01 14:10:42;;;;;;;1.65;0.77;;;;;;;;;;10418037;28;20909;-73
2022/04/01 14:15:43;;;;;;;3.65;0.80;;;;;;;;;;10413230;28;20215;-74
2022/04/01 14:20:46;;;;;;;1.02;0.90;;;;;;;;;;10412324;28;20365;-74
2022/04/01 14:25:47;;;;;;;3.00;1.70;;;;;;;;;;10415683;28;20207;-74
2022/04/01 14:30:50;;;;;;;0.93;0.93;;;;;;;;;;10410422;28;20242;-73
2022/04/01 14:35:51;;;;;;;1.08;1.08;;;;;;;;;;10416512;28;20195;-75
2022/04/01 14:40:52;;;;;;;1.52;0.77;;;;;;;;;;10417299;28;20600;-75
2022/04/01 14:45:53;;;;;;;1.65;0.95;;;;;;;;;;10415777;28;20241;-74
2022/04/01 14:50:55;;;;;;;0.98;0.50;;;;;;;;;;10420966;28;20706;-75
2022/04/01 14:55:56;;;;;;;1.08;0.80;;;;;;;;;;10416755;28;20226;-75
2022/04/01 15:00:57;;;;;;;1.65;0.70;;;;;;;;;;10414769;28;20219;-74
2022/04/01 15:05:58;;;;;;;2.58;1.08;;;;;;;;;;10412075;28;20286;-74
2022/04/01 15:10:59;;;;;;;4.15;1.88;;;;;;;;;;10420777;28;20948;-73
2022/04/01 15:16:00;;;;;;;0.88;0.73;;;;;;;;;;10415770;28;20225;-74
2022/04/01 15:21:01;;;;;;;3.03;1.00;;;;;;;;;;10419593;28;20613;-76
2022/04/01 15:26:02;;;;;;;3.03;1.27;;;;;;;;;;10417906;28;20203;-75
2022/04/01 15:31:03;;;;;;;6.88;0.80;;;;;;;;;;10416418;28;20273;-75
2022/04/01 15:36:06;;;;;;;4.57;0.80;;;;;;;;;;10417808;28;20230;-75
2022/04/01 15:41:11;;;;;;;1.27;1.17;;;;;;;;;;10423172;28;20199;-75
2022/04/01 15:46:12;;;;;;;2.00;1.25;;;;;;;;;;10438925;28;20215;-75
2022/04/01 15:51:13;;;;;;;4.28;1.27;;;;;;;;;;10425811;28;20252;-74
2022/04/01 15:56:14;;;;;;;0.60;0.60;;;;;;;;;;10425693;28;20326;-75
2022/04/01 16:01:17;;;;;;;4.32;0.90;;;;;;;;;;10429521;28;20215;-75
2022/04/01 16:06:19;;;;;;;2.67;1.00;;;;;;;;;;10423098;28;20258;-75
2022/04/01 16:11:21;;;;;;;4.28;1.20;;;;;;;;;;10428221;28;20622;-76
2022/04/01 16:16:24;;;;;;;3.50;0.68;;;;;;;;;;10432006;28;20693;-74
2022/04/01 16:21:25;;;;;;;4.05;0.75;;;;;;;;;;10422804;28;20199;-76
2022/04/01 16:26:27;;;;;;;2.33;0.60;;;;;;;;;;10423488;28;20226;-75
2022/04/01 16:31:28;;;;;;;1.50;0.70;;;;;;;;;;10427245;28;20216;-74
2022/04/01 16:36:29;;;;;;;1.05;0.80;;;;;;;;;;10424597;28;21147;-74
2022/04/01 16:41:30;;;;;;;5.78;0.82;;;;;;;;;;10425760;28;20263;-75
2022/04/01 16:46:31;;;;;;;10.57;1.00;;;;;;;;;;10428360;28;20815;-75
2022/04/01 16:51:32;;;;;;;3.60;1.17;;;;;;;;;;10425369;28;20235;-75
2022/04/01 16:56:33;;;;;;;4.07;0.50;;;;;;;;;;10425548;28;20233;-76
2022/04/01 17:01:34;;;;;;;1.80;0.90;;;;;;;;;;10420451;28;20695;-75
2022/04/01 17:17:16;;;;;;;1.98;0.77;;;;;;;;;;10423654;28;20979;-74
2022/04/01 17:22:18;;;;;;;1.05;1.00;;;;;;;;;;10420543;28;20211;-75
2022/04/01 17:27:20;;;;;;;7.30;1.58;;;;;;;;;;10421546;28;20211;-73
2022/04/01 17:32:23;;;;;;;1.88;1.33;;;;;;;;;;10422433;28;20248;-71
2022/04/01 17:37:26;;;;;;;4.00;1.20;;;;;;;;;;10421788;28;20589;-74
2022/04/01 17:42:28;;;;;;;2.25;0.85;;;;;;;;;;10424430;28;20578;-75
2022/04/01 17:47:29;;;;;;;7.47;0.90;;;;;;;;;;10430565;28;20215;-76
2022/04/01 17:52:30;;;;;;;3.35;0.80;;;;;;;;;;10425923;28;20204;-77
2022/04/01 17:57:33;;;;;;;0.95;0.93;;;;;;;;;;10426925;28;20229;-76
2022/04/01 18:02:35;;;;;;;6.07;1.70;;;;;;;;;;10419702;28;20249;-75
2022/04/01 18:07:42;;;;;;;1.98;0.90;;;;;;;;;;10422067;28;20278;-75
2022/04/01 18:12:43;;;;;;;7.75;0.98;;;;;;;;;;10420757;28;20229;-78
2022/04/01 18:17:44;;;;;;;2.35;0.80;;;;;;;;;;10410381;28;20202;-76
2022/04/01 18:22:46;;;;;;;6.65;0.90;;;;;;;;;;10410767;28;20199;-76
2022/04/01 18:28:00;;;;;;;9.32;0.77;;;;;;;;;;10418023;28;20207;-75
2022/04/01 18:33:03;;;;;;;6.90;1.08;;;;;;;;;;10409258;28;21535;-75
2022/04/01 18:38:05;;;;;;;5.18;0.80;;;;;;;;;;10417651;28;20214;-79
2022/04/01 18:43:10;;;;;;;4.68;0.73;;;;;;;;;;10417922;28;20241;-80
2022/04/01 18:48:12;;;;;;;2.30;0.93;;;;;;;;;;10421605;28;20285;-76
2022/04/01 18:53:13;;;;;;;0.70;0.70;;;;;;;;;;10418998;28;20272;-82
2022/04/01 18:58:15;;;;;;;3.45;0.90;;;;;;;;;;10419564;28;20742;-84
2022/04/01 19:03:19;;;;;;;3.25;0.70;;;;;;;;;;10415983;28;20215;-75
2022/04/01 19:08:33;;;;;;;4.97;0.82;;;;;;;;;;10417353;28;20210;-75
2022/04/01 19:13:34;;;;;;;2.17;1.00;;;;;;;;;;10421209;28;20199;-82
2022/04/01 19:18:40;;;;;;;2.70;1.00;;;;;;;;;;10421512;28;20207;-80
2022/04/01 19:23:42;;;;;;;4.20;0.90;;;;;;;;;;10429327;28;20765;-79
2022/04/01 19:28:43;;;;;;;0.98;0.90;;;;;;;;;;10425685;28;20719;-75
2022/04/01 19:33:44;;;;;;;2.33;0.68;;;;;;;;;;10421498;28;20254;-73
2022/04/01 19:38:45;;;;;;;7.95;1.67;;;;;;;;;;10402913;28;20752;-74
2022/04/01 19:43:46;;;;;;;4.05;1.27;;;;;;;;;;10427283;28;20207;-75
2022/04/01 19:48:47;;;;;;;3.13;0.88;;;;;;;;;;10422383;28;20219;-73
2022/04/01 19:53:49;;;;;;;6.35;0.73;;;;;;;;;;10418468;28;20336;-74
2022/04/01 19:58:50;;;;;;;4.65;1.00;;;;;;;;;;10424503;28;20258;-76
2022/04/01 20:03:51;;;;;;;2.38;0.70;;;;;;;;;;10424084;28;20769;-81
2022/04/01 20:08:52;;;;;;;3.13;0.90;;;;;;;;;;10426349;28;20217;-76
2022/04/01 20:13:53;;;;;;;3.03;0.63;;;;;;;;;;10417251;28;20712;-80
2022/04/01 20:18:55;;;;;;;6.90;0.88;;;;;;;;;;10425370;28;20205;-79
2022/04/01 20:23:56;;;;;;;4.18;0.75;;;;;;;;;;10425208;28;20207;-77
2022/04/01 20:28:58;;;;;;;4.00;1.00;;;;;;;;;;10423420;28;20209;-75
2022/04/01 20:33:59;;;;;;;3.03;0.65;;;;;;;;;;10421103;28;20203;-76
2022/04/01 20:39:01;;;;;;;1.70;0.60;;;;;;;;;;10420167;28;20308;-73
2022/04/01 20:44:02;;;;;;;5.40;0.50;;;;;;;;;;10417921;28;20673;-74
2022/04/01 20:49:03;;;;;;;1.92;0.57;;;;;;;;;;10416112;28;20221;-72
2022/04/01 20:54:04;;;;;;;0.50;0.50;;;;;;;;;;10420822;28;20284;-73
2022/04/01 20:59:05;;;;;;;1.50;0.75;;;;;;;;;;10422064;28;20203;-73
2022/04/01 21:04:06;;;;;;;5.88;0.50;;;;;;;;;;10422537;28;20218;-72
2022/04/01 21:09:08;;;;;;;1.92;0.80;;;;;;;;;;10422124;28;20199;-72
2022/04/01 21:14:09;;;;;;;3.40;0.80;;;;;;;;;;10419221;28;20307;-73
2022/04/01 21:19:10;;;;;;;1.48;0.50;;;;;;;;;;10419704;28;20260;-73
2022/04/01 21:24:11;;;;;;;3.67;0.88;;;;;;;;;;10420302;28;20202;-73
2022/04/01 21:29:13;;;;;;;4.68;0.75;;;;;;;;;;10420151;28;20223;-73
2022/04/01 21:34:14;;;;;;;1.73;0.55;;;;;;;;;;10423518;28;20237;-73
2022/04/01 21:39:15;;;;;;;0.52;0.50;;;;;;;;;;10419710;28;20304;-73
2022/04/01 21:44:16;;;;;;;0.77;0.60;;;;;;;;;;10420231;28;20268;-72
2022/04/01 21:49:17;;;;;;;3.15;0.68;;;;;;;;;;10436088;28;20285;-73
2022/04/01 21:54:18;;;;;;;1.40;0.90;;;;;;;;;;10420831;28;20237;-73
2022/04/01 21:59:23;;;;;;;5.53;0.85;;;;;;;;;;10421390;28;20222;-74
2022/04/01 22:04:28;;;;;;;1.70;0.60;;;;;;;;;;10422072;28;20940;-74
2022/04/01 22:09:29;;;;;;;1.70;0.68;;;;;;;;;;10421338;28;20215;-74
2022/04/01 22:14:31;;;;;;;2.58;0.50;;;;;;;;;;10419893;28;20250;-73
2022/04/01 22:19:32;;;;;;;1.42;0.38;;;;;;;;;;10420120;28;20685;-74
2022/04/01 22:24:33;;;;;;;1.42;0.60;;;;;;;;;;10419505;28;20195;-74
2022/04/01 22:29:34;;;;;;;0.50;0.50;;;;;;;;;;10419492;28;20211;-74
2022/04/01 22:34:37;;;;;;;0.50;0.43;;;;;;;;;;10419364;28;20302;-73
2022/04/01 22:39:39;;;;;;;0.93;0.57;;;;;;;;;;10418305;28;20214;-73
2022/04/01 22:44:40;;;;;;;0.77;0.60;;;;;;;;;;10415687;28;20282;-73
2022/04/01 22:49:41;;;;;;;1.58;0.50;;;;;;;;;;10419029;28;20762;-73
2022/04/01 22:54:42;;;;;;;4.85;0.47;;;;;;;;;;10425754;28;20211;-73
2022/04/01 22:59:43;;;;;;;1.63;0.60;;;;;;;;;;10427859;28;20320;-73
2022/04/01 23:04:46;;;;;;;1.33;0.50;;;;;;;;;;10427273;28;20305;-73
2022/04/01 23:09:47;;;;;;;1.55;0.50;;;;;;;;;;10426065;28;20215;-74
2022/04/01 23:14:49;;;;;;;2.78;0.90;;;;;;;;;;10426772;28;20230;-74
2022/04/01 23:19:50;;;;;;;0.40;0.40;;;;;;;;;;10425652;28;20240;-73
2022/04/01 23:24:51;;;;;;;3.55;0.73;;;;;;;;;;10425622;28;20261;-75
2022/04/01 23:29:52;;;;;;;1.60;0.73;;;;;;;;;;10428450;28;20306;-73
2022/04/01 23:34:53;;;;;;;3.03;0.50;;;;;;;;;;10425168;28;20207;-73
2022/04/01 23:39:54;;;;;;;0.50;0.50;;;;;;;;;;10427489;28;20637;-73
2022/04/01 23:44:56;;;;;;;0.98;0.50;;;;;;;;;;10423574;28;20199;-74
2022/04/01 23:49:57;;;;;;;0.60;0.60;;;;;;;;;;10440851;28;20211;-74
2022/04/01 23:54:58;;;;;;;1.85;0.40;;;;;;;;;;10424556;28;20211;-74
2022/04/01 23:59:59;;;;;;;0.73;0.50;;;;;;;;;;10424825;28;20199;-74
